Time;durP1;ratioP1;P1;durP2;ratioP2;P2;SDS_P1;SDS_P2;PMS_P1;PMS_P2;Temp;Humidity;BMP_temperature;BMP_pressure;BME280_temperature;BME280_humidity;BME280_pressure;Samples;Min_cycle;Max_cycle;Signal;HPM_P1;HPM_P2
2022/06/26 00:00:59;;;;;;;5.13;3.27;;;19.30;99.90;;;;;;4992602;28;20211;-68
2022/06/26 00:03:26;;;;;;;3.55;3.25;;;19.30;99.90;;;;;;4990691;28;20211;-68
2022/06/26 00:05:52;;;;;;;3.30;2.88;;;19.20;99.90;;;;;;4993213;28;20716;-67
2022/06/26 00:08:18;;;;;;;3.53;3.25;;;19.30;99.90;;;;;;4992722;28;20294;-68
2022/06/26 00:10:46;;;;;;;3.30;3.10;;;19.30;99.90;;;;;;4992606;28;20660;-68
2022/06/26 00:13:12;;;;;;;3.95;3.55;;;19.40;99.90;;;;;;4986325;28;20661;-68
2022/06/26 00:15:38;;;;;;;3.55;3.33;;;19.40;99.90;;;;;;4993175;28;20195;-68
2022/06/26 00:18:04;;;;;;;3.83;3.50;;;19.00;99.90;;;;;;4985225;28;20233;-68
2022/06/26 00:20:30;;;;;;;3.67;3.37;;;19.30;99.90;;;;;;4990848;28;20239;-68
2022/06/26 00:22:55;;;;;;;3.87;2.80;;;19.30;99.90;;;;;;4992479;28;20301;-68
2022/06/26 00:25:21;;;;;;;3.13;2.90;;;19.30;99.90;;;;;;4989819;28;20812;-68
2022/06/26 00:27:47;;;;;;;3.40;3.20;;;19.30;99.90;;;;;;4991850;28;20254;-68
2022/06/26 00:30:13;;;;;;;3.90;3.60;;;19.30;99.90;;;;;;4989802;28;20227;-68
2022/06/26 00:32:39;;;;;;;3.75;3.28;;;19.20;99.90;;;;;;4990515;28;20241;-68
2022/06/26 00:35:06;;;;;;;3.55;3.25;;;19.20;99.90;;;;;;4993312;28;20645;-67
2022/06/26 00:37:31;;;;;;;3.30;3.10;;;19.10;99.90;;;;;;4991868;28;20189;-67
2022/06/26 00:39:57;;;;;;;3.00;2.27;;;19.20;99.90;;;;;;4986450;28;20183;-68
2022/06/26 00:42:22;;;;;;;3.00;2.80;;;19.30;99.90;;;;;;4985574;28;20204;-68
2022/06/26 00:44:52;;;;;;;3.40;3.07;;;19.50;99.90;;;;;;4989762;28;20207;-68
2022/06/26 00:47:18;;;;;;;3.67;3.15;;;19.60;99.90;;;;;;4991270;28;20183;-68
2022/06/26 00:49:44;;;;;;;3.45;3.25;;;19.60;99.90;;;;;;4989073;28;20188;-68
2022/06/26 00:52:11;;;;;;;3.55;3.25;;;19.60;99.90;;;;;;4992666;28;20199;-68
2022/06/26 00:54:37;;;;;;;3.10;2.90;;;19.60;99.90;;;;;;4992086;28;20199;-68
2022/06/26 00:57:03;;;;;;;3.13;2.92;;;19.60;99.90;;;;;;4991812;28;20192;-67
2022/06/26 00:59:30;;;;;;;3.30;3.10;;;19.60;99.90;;;;;;4986597;28;20191;-68
2022/06/26 01:01:56;;;;;;;3.13;2.92;;;19.60;99.90;;;;;;4991032;28;20211;-67
2022/06/26 01:04:22;;;;;;;3.40;3.10;;;19.70;99.90;;;;;;4990151;28;20713;-67
2022/06/26 01:06:48;;;;;;;5.43;2.83;;;19.70;99.90;;;;;;4990919;28;20563;-67
2022/06/26 01:09:14;;;;;;;2.65;2.45;;;19.70;99.90;;;;;;4989302;28;20534;-67
2022/06/26 01:11:42;;;;;;;2.43;2.33;;;19.80;99.90;;;;;;4990416;28;20283;-68
2022/06/26 01:14:09;;;;;;;2.72;2.63;;;19.90;99.90;;;;;;4991230;28;20188;-67
2022/06/26 01:16:36;;;;;;;2.70;2.50;;;20.00;99.90;;;;;;4991282;28;20195;-67
2022/06/26 01:19:01;;;;;;;2.42;2.33;;;20.20;99.90;;;;;;4983978;28;20191;-67
2022/06/26 01:21:28;;;;;;;2.43;2.10;;;20.30;99.90;;;;;;4989043;28;20577;-68
2022/06/26 01:23:55;;;;;;;2.50;2.40;;;20.50;99.90;;;;;;4988911;28;20254;-67
2022/06/26 01:26:21;;;;;;;2.72;2.53;;;20.60;99.90;;;;;;4987538;28;20216;-67
2022/06/26 01:28:47;;;;;;;2.65;2.45;;;20.60;99.90;;;;;;4990324;28;20187;-67
2022/06/26 01:31:13;;;;;;;2.37;2.27;;;20.80;99.90;;;;;;4991482;28;20215;-67
2022/06/26 01:33:39;;;;;;;3.78;2.20;;;20.80;99.90;;;;;;4991989;28;20449;-68
2022/06/26 01:36:06;;;;;;;2.30;2.17;;;20.90;99.90;;;;;;4991645;28;20194;-68
2022/06/26 01:38:31;;;;;;;2.13;2.00;;;20.90;99.90;;;;;;4987262;28;20230;-68
2022/06/26 01:40:58;;;;;;;2.30;2.10;;;21.00;99.90;;;;;;4982998;28;20211;-68
2022/06/26 01:43:30;;;;;;;2.28;2.15;;;21.10;99.90;;;;;;4986964;28;21011;-67
2022/06/26 01:45:57;;;;;;;2.38;2.17;;;21.20;99.90;;;;;;4991131;28;20202;-67
2022/06/26 01:48:24;;;;;;;1.90;1.70;;;21.30;99.90;;;;;;4987814;28;20283;-68
2022/06/26 01:50:51;;;;;;;2.63;2.42;;;21.30;99.90;;;;;;4991718;28;20265;-68
2022/06/26 01:53:16;;;;;;;2.70;2.20;;;21.30;99.90;;;;;;4990504;28;20238;-68
2022/06/26 01:55:42;;;;;;;2.57;2.40;;;21.30;99.90;;;;;;4992072;28;20259;-67
2022/06/26 01:58:08;;;;;;;2.77;2.50;;;21.30;99.90;;;;;;4985288;28;20200;-68
2022/06/26 02:00:37;;;;;;;2.43;2.20;;;21.30;99.90;;;;;;4990447;28;20545;-66
2022/06/26 02:03:04;;;;;;;3.08;2.10;;;21.30;99.90;;;;;;4983268;28;20462;-67
2022/06/26 02:05:30;;;;;;;2.70;2.50;;;21.40;99.90;;;;;;4992007;28;20322;-67
2022/06/26 02:07:56;;;;;;;3.70;3.40;;;21.40;99.90;;;;;;4989921;28;20276;-68
2022/06/26 02:15:53;;;;;;;2.50;2.30;;;21.10;99.90;;;;;;4991155;28;20222;-67
2022/06/26 02:18:19;;;;;;;2.33;2.22;;;21.20;99.90;;;;;;4983933;28;20850;-68
2022/06/26 02:20:45;;;;;;;2.33;2.00;;;21.10;99.90;;;;;;4995081;28;20613;-68
2022/06/26 02:23:11;;;;;;;3.03;2.40;;;21.20;99.90;;;;;;4982207;28;20216;-68
2022/06/26 02:25:37;;;;;;;2.70;2.45;;;21.10;99.90;;;;;;4989770;28;20188;-67
2022/06/26 02:28:03;;;;;;;2.47;2.37;;;21.00;99.90;;;;;;4985813;28;20183;-68
2022/06/26 02:30:29;;;;;;;4.20;2.70;;;20.80;99.90;;;;;;4992234;28;20199;-67
2022/06/26 02:32:56;;;;;;;3.00;2.80;;;20.80;99.90;;;;;;4989973;28;20180;-68
2022/06/26 02:35:23;;;;;;;2.80;2.60;;;20.70;99.90;;;;;;4990436;28;20638;-67
2022/06/26 02:37:49;;;;;;;2.75;2.53;;;20.60;99.90;;;;;;4989816;28;20190;-69
2022/06/26 02:40:15;;;;;;;2.40;2.20;;;20.50;99.90;;;;;;4994370;28;20203;-67
2022/06/26 02:42:41;;;;;;;2.65;2.45;;;20.40;99.90;;;;;;4984995;28;20438;-69
2022/06/26 02:45:07;;;;;;;2.97;2.77;;;20.30;99.90;;;;;;4991384;28;20695;-68
2022/06/26 02:47:33;;;;;;;2.40;2.30;;;20.20;99.90;;;;;;4989435;28;20183;-67
2022/06/26 02:49:58;;;;;;;3.07;2.80;;;20.30;99.90;;;;;;4990378;28;20211;-68
2022/06/26 02:52:24;;;;;;;2.70;2.50;;;20.30;99.90;;;;;;4990972;28;20505;-67
2022/06/26 02:54:50;;;;;;;2.80;2.60;;;20.20;99.90;;;;;;4990790;28;20249;-67
2022/06/26 02:57:16;;;;;;;3.10;2.60;;;20.00;99.90;;;;;;4989130;28;20187;-68
2022/06/26 02:59:42;;;;;;;4.53;2.45;;;20.00;99.90;;;;;;4992063;28;20194;-68
2022/06/26 03:02:08;;;;;;;5.47;2.80;;;20.00;99.90;;;;;;4994941;28;20226;-68
2022/06/26 03:04:33;;;;;;;2.73;2.50;;;20.00;99.90;;;;;;4988810;28;20207;-68
2022/06/26 03:06:59;;;;;;;2.60;2.40;;;20.00;99.90;;;;;;4988337;28;20441;-67
2022/06/26 03:09:25;;;;;;;5.47;2.90;;;20.00;99.90;;;;;;4987155;28;20195;-68
2022/06/26 03:11:50;;;;;;;2.80;2.60;;;20.00;99.90;;;;;;4985610;28;20230;-67
2022/06/26 03:14:16;;;;;;;2.60;2.40;;;20.00;99.90;;;;;;4985718;28;20202;-68
2022/06/26 03:16:42;;;;;;;2.63;2.43;;;19.60;99.90;;;;;;5007236;28;20262;-67
2022/06/26 03:19:07;;;;;;;2.73;2.60;;;20.00;99.90;;;;;;4979190;28;20195;-67
2022/06/26 03:21:33;;;;;;;3.37;2.70;;;20.10;99.90;;;;;;4988392;28;20219;-68
2022/06/26 03:24:02;;;;;;;2.60;2.50;;;20.10;99.90;;;;;;4990578;28;20265;-67
2022/06/26 03:26:32;;;;;;;4.35;2.50;;;20.00;99.90;;;;;;4984322;28;20656;-68
2022/06/26 03:28:58;;;;;;;2.90;2.70;;;20.00;99.90;;;;;;4990279;28;20239;-67
2022/06/26 03:31:24;;;;;;;3.33;3.00;;;19.90;99.90;;;;;;4993471;28;20223;-68
2022/06/26 03:33:50;;;;;;;2.90;2.70;;;19.90;99.90;;;;;;4983325;28;20203;-68
2022/06/26 03:36:16;;;;;;;3.23;3.00;;;19.90;99.90;;;;;;4990247;28;20188;-68
2022/06/26 03:38:42;;;;;;;2.80;2.60;;;19.90;99.90;;;;;;4990674;28;20442;-67
2022/06/26 03:41:08;;;;;;;2.50;2.10;;;19.90;99.90;;;;;;4995207;28;20469;-67
2022/06/26 03:43:34;;;;;;;2.33;2.23;;;19.90;99.90;;;;;;4984434;28;20215;-67
2022/06/26 03:46:00;;;;;;;2.83;2.50;;;19.90;99.90;;;;;;4990625;28;20187;-67
2022/06/26 03:48:25;;;;;;;3.00;2.60;;;19.90;99.90;;;;;;4992104;28;20453;-67
2022/06/26 03:50:51;;;;;;;2.53;2.43;;;20.00;99.90;;;;;;4993279;28;20229;-67
2022/06/26 03:53:17;;;;;;;2.80;2.60;;;19.80;99.90;;;;;;4994232;28;20562;-67
2022/06/26 03:55:43;;;;;;;3.10;2.90;;;19.80;99.90;;;;;;4997127;28;20219;-67
2022/06/26 03:58:10;;;;;;;2.70;2.47;;;19.80;99.90;;;;;;5005688;28;20214;-67
2022/06/26 04:00:36;;;;;;;2.85;2.08;;;19.70;99.90;;;;;;4996727;28;20462;-68
2022/06/26 04:03:03;;;;;;;2.55;2.40;;;19.70;99.90;;;;;;4991564;28;20246;-67
2022/06/26 04:05:30;;;;;;;2.65;2.45;;;19.60;99.90;;;;;;4992474;28;20711;-67
2022/06/26 04:07:56;;;;;;;3.78;2.67;;;19.50;99.90;;;;;;4993394;28;20184;-67
2022/06/26 04:10:21;;;;;;;2.53;2.33;;;19.60;99.90;;;;;;4992243;28;20214;-68
2022/06/26 04:12:47;;;;;;;2.60;2.40;;;19.60;99.90;;;;;;4992608;28;20184;-67
2022/06/26 04:15:13;;;;;;;4.60;2.67;;;19.70;99.90;;;;;;4993718;28;20194;-67
2022/06/26 04:17:38;;;;;;;2.90;2.70;;;19.70;99.90;;;;;;4989748;28;20567;-67
2022/06/26 04:20:05;;;;;;;2.97;2.60;;;19.70;99.90;;;;;;4991804;28;20554;-67
2022/06/26 04:22:30;;;;;;;2.60;2.40;;;19.70;99.90;;;;;;4992344;28;20442;-67
2022/06/26 04:24:56;;;;;;;2.90;2.70;;;19.70;99.90;;;;;;4991210;28;20223;-67
2022/06/26 04:27:22;;;;;;;2.80;2.60;;;19.70;99.90;;;;;;4995605;28;20270;-67
2022/06/26 04:29:47;;;;;;;2.60;2.40;;;19.60;99.90;;;;;;4994892;28;20183;-68
2022/06/26 04:32:13;;;;;;;2.90;2.70;;;19.60;99.90;;;;;;4993355;28;20191;-68
2022/06/26 04:34:39;;;;;;;2.60;2.40;;;19.70;99.90;;;;;;4987783;28;20573;-67
2022/06/26 04:37:04;;;;;;;2.70;2.50;;;19.70;99.90;;;;;;4991759;28;20180;-68
2022/06/26 04:39:30;;;;;;;3.00;2.80;;;19.70;99.90;;;;;;4991650;28;20951;-68
2022/06/26 04:41:56;;;;;;;2.60;2.40;;;19.70;99.90;;;;;;4988860;28;20220;-68
2022/06/26 04:44:22;;;;;;;3.20;2.40;;;19.70;99.90;;;;;;4989143;28;20212;-67
2022/06/26 04:46:48;;;;;;;2.53;2.43;;;19.60;99.90;;;;;;4988182;28;20191;-67
2022/06/26 04:49:14;;;;;;;2.90;2.67;;;19.70;99.90;;;;;;4988372;28;20278;-67
2022/06/26 04:51:40;;;;;;;2.47;2.33;;;19.70;99.90;;;;;;4993383;28;20615;-67
2022/06/26 04:54:07;;;;;;;2.55;2.35;;;19.80;99.90;;;;;;4988554;28;20556;-68
2022/06/26 04:56:32;;;;;;;2.72;2.53;;;19.60;99.90;;;;;;4987833;28;20271;-67
2022/06/26 04:58:59;;;;;;;2.43;2.23;;;20.00;99.90;;;;;;4987478;28;20271;-67
2022/06/26 05:01:26;;;;;;;2.88;2.67;;;20.10;99.90;;;;;;4986443;28;20213;-67
2022/06/26 05:03:52;;;;;;;2.78;2.58;;;20.20;99.90;;;;;;4994751;28;20664;-68
2022/06/26 05:06:18;;;;;;;2.70;2.50;;;20.30;99.90;;;;;;4988412;28;20242;-68
2022/06/26 05:08:44;;;;;;;2.93;2.63;;;20.30;99.90;;;;;;4991932;28;20192;-68
2022/06/26 05:11:10;;;;;;;2.50;2.40;;;20.30;99.90;;;;;;4989734;28;20765;-68
2022/06/26 05:13:35;;;;;;;3.13;2.83;;;20.40;99.90;;;;;;4994909;28;20266;-68
2022/06/26 05:16:01;;;;;;;2.77;2.57;;;20.40;99.90;;;;;;4991240;28;20450;-67
2022/06/26 05:18:27;;;;;;;2.73;2.20;;;20.40;99.90;;;;;;4987565;28;20201;-67
2022/06/26 05:20:53;;;;;;;2.70;2.60;;;20.30;99.90;;;;;;4992289;28;20246;-67
2022/06/26 05:23:19;;;;;;;3.00;2.73;;;20.50;99.90;;;;;;4991728;28;20214;-68
2022/06/26 05:25:44;;;;;;;3.30;2.70;;;20.60;99.90;;;;;;4990106;28;20443;-68
2022/06/26 05:28:11;;;;;;;2.87;2.67;;;20.70;99.90;;;;;;4990129;28;20310;-68
2022/06/26 05:30:36;;;;;;;3.17;2.97;;;20.70;99.90;;;;;;4987819;28;20305;-68
2022/06/26 05:33:03;;;;;;;3.73;2.73;;;20.60;99.90;;;;;;4987010;28;21214;-67
2022/06/26 05:35:29;;;;;;;3.00;2.80;;;20.70;99.90;;;;;;4992117;28;20198;-68
2022/06/26 05:37:55;;;;;;;2.70;2.50;;;20.70;99.90;;;;;;4989688;28;20207;-69
2022/06/26 05:40:21;;;;;;;5.60;2.90;;;20.80;99.90;;;;;;4991210;28;20207;-69
2022/06/26 05:42:47;;;;;;;3.10;2.77;;;20.90;99.90;;;;;;4981291;28;20183;-68
2022/06/26 05:45:12;;;;;;;3.00;2.80;;;21.40;99.90;;;;;;4990589;28;20180;-67
2022/06/26 05:47:38;;;;;;;3.00;2.80;;;20.90;99.90;;;;;;4989993;28;20183;-68
2022/06/26 05:50:05;;;;;;;4.40;3.10;;;21.00;99.90;;;;;;4987973;28;20202;-68
2022/06/26 05:52:30;;;;;;;2.85;2.65;;;21.00;99.90;;;;;;4990854;28;20199;-68
2022/06/26 05:54:56;;;;;;;3.23;2.93;;;21.10;99.90;;;;;;4990915;28;20204;-69
2022/06/26 05:57:22;;;;;;;3.30;2.83;;;21.50;99.90;;;;;;4993988;28;20221;-68
2022/06/26 05:59:48;;;;;;;3.83;3.00;;;21.00;99.90;;;;;;4988974;28;20195;-68
2022/06/26 06:02:13;;;;;;;3.65;2.45;;;21.00;99.90;;;;;;4989766;28;20601;-68
2022/06/26 06:04:39;;;;;;;2.80;2.60;;;21.00;99.90;;;;;;4986088;28;20261;-65
2022/06/26 06:07:05;;;;;;;3.00;2.80;;;21.00;99.90;;;;;;4986318;28;20192;-65
2022/06/26 06:09:31;;;;;;;3.60;3.20;;;21.00;99.90;;;;;;4990434;28;20234;-65
2022/06/26 06:11:57;;;;;;;3.17;2.97;;;21.10;99.90;;;;;;4984233;28;20290;-65
2022/06/26 06:14:23;;;;;;;3.20;2.80;;;21.30;99.90;;;;;;4989767;28;20278;-65
2022/06/26 06:16:49;;;;;;;2.77;2.57;;;21.40;99.90;;;;;;4987857;28;20195;-65
2022/06/26 06:19:14;;;;;;;2.07;1.97;;;21.70;99.90;;;;;;4986688;28;20672;-65
2022/06/26 06:21:40;;;;;;;1.97;1.87;;;21.70;99.90;;;;;;4989606;28;20537;-65
2022/06/26 06:24:06;;;;;;;2.27;2.10;;;21.80;99.90;;;;;;4991613;28;20334;-70
2022/06/26 06:26:32;;;;;;;1.53;1.43;;;21.90;99.90;;;;;;4989793;28;20191;-65
2022/06/26 06:28:57;;;;;;;1.90;1.80;;;22.10;98.90;;;;;;4988299;28;20451;-65
2022/06/26 06:31:23;;;;;;;1.73;1.60;;;22.30;98.10;;;;;;4988154;28;20435;-65
2022/06/26 06:33:48;;;;;;;1.67;1.50;;;22.30;96.90;;;;;;4986674;28;20184;-65
2022/06/26 06:36:14;;;;;;;1.60;1.50;;;22.40;96.70;;;;;;4990685;28;20190;-65
2022/06/26 06:38:40;;;;;;;1.60;1.50;;;22.60;96.70;;;;;;4988428;28;20693;-66
2022/06/26 06:41:05;;;;;;;2.80;1.70;;;22.80;96.50;;;;;;4985343;28;20661;-65
2022/06/26 06:43:31;;;;;;;1.70;1.60;;;22.60;96.30;;;;;;4987089;28;20269;-66
2022/06/26 06:45:57;;;;;;;1.80;1.70;;;23.00;96.30;;;;;;4989914;28;20179;-65
2022/06/26 06:48:24;;;;;;;2.20;1.87;;;23.20;95.80;;;;;;4988551;28;20439;-65
2022/06/26 06:50:51;;;;;;;1.80;1.70;;;23.30;95.80;;;;;;4986171;28;20197;-66
2022/06/26 06:53:18;;;;;;;4.33;1.90;;;23.60;95.60;;;;;;4986827;28;20469;-66
2022/06/26 06:55:43;;;;;;;1.90;1.80;;;23.60;94.80;;;;;;4987725;28;20825;-71
2022/06/26 06:58:09;;;;;;;1.90;1.80;;;23.70;94.60;;;;;;4984733;28;20446;-67
2022/06/26 07:00:35;;;;;;;2.00;1.90;;;23.70;94.40;;;;;;4995981;28;20200;-67
2022/06/26 07:03:03;;;;;;;2.60;2.40;;;23.50;94.80;;;;;;4985630;28;20229;-71
2022/06/26 07:05:29;;;;;;;2.03;1.93;;;23.80;94.30;;;;;;4990800;28;20462;-71
2022/06/26 07:07:55;;;;;;;3.73;2.00;;;24.30;93.90;;;;;;4984083;28;20472;-69
2022/06/26 07:10:21;;;;;;;2.23;2.13;;;25.50;92.40;;;;;;4982989;28;21124;-68
2022/06/26 07:12:55;;;;;;;2.20;2.00;;;27.30;90.30;;;;;;4980537;28;22829;-69
2022/06/26 07:15:21;;;;;;;2.13;1.70;;;29.90;77.80;;;;;;4981583;28;20459;-68
2022/06/26 07:17:47;;;;;;;2.13;1.77;;;32.10;68.80;;;;;;4988880;28;20939;-67
2022/06/26 07:20:15;;;;;;;2.10;2.00;;;33.40;61.00;;;;;;4988641;28;20649;-69
2022/06/26 07:22:40;;;;;;;2.93;1.97;;;34.10;57.80;;;;;;4986511;28;21223;-67
2022/06/26 07:25:07;;;;;;;1.70;1.60;;;36.10;55.30;;;;;;4992783;28;20485;-67
2022/06/26 07:27:32;;;;;;;1.60;1.50;;;37.70;49.80;;;;;;4992132;28;20192;-67
2022/06/26 07:29:58;;;;;;;1.80;1.70;;;38.20;47.00;;;;;;4993245;28;20501;-67
2022/06/26 07:32:24;;;;;;;2.30;1.80;;;40.60;44.00;;;;;;4993098;28;20198;-67
2022/06/26 07:34:50;;;;;;;1.77;1.67;;;39.20;43.30;;;;;;4992212;28;20195;-67
2022/06/26 07:37:15;;;;;;;2.17;1.97;;;40.10;41.20;;;;;;4994206;28;20496;-69
2022/06/26 07:39:41;;;;;;;1.50;1.40;;;40.80;39.80;;;;;;4993009;28;20201;-74
2022/06/26 07:42:07;;;;;;;1.87;1.77;;;40.20;40.00;;;;;;4994287;28;20215;-71
2022/06/26 07:44:33;;;;;;;1.70;1.60;;;41.20;38.90;;;;;;4989373;28;20697;-69
2022/06/26 07:46:59;;;;;;;1.80;1.67;;;41.50;37.40;;;;;;4993187;28;20438;-69
2022/06/26 07:49:25;;;;;;;1.33;1.20;;;40.70;38.00;;;;;;4988503;28;20188;-70
2022/06/26 07:51:50;;;;;;;1.60;1.50;;;41.70;37.00;;;;;;4986365;28;20219;-69
2022/06/26 07:54:16;;;;;;;1.80;1.70;;;42.40;35.20;;;;;;4993248;28;20207;-70
2022/06/26 07:56:42;;;;;;;1.50;1.40;;;41.50;36.50;;;;;;4992444;28;20196;-73
2022/06/26 07:59:08;;;;;;;2.87;1.93;;;41.10;36.20;;;;;;4988507;28;21019;-74
2022/06/26 08:01:34;;;;;;;2.00;1.90;;;41.10;37.00;;;;;;4991772;28;20463;-74
2022/06/26 08:04:01;;;;;;;1.50;1.40;;;39.40;36.50;;;;;;4988928;28;20897;-75
2022/06/26 08:06:28;;;;;;;1.60;1.50;;;39.30;38.20;;;;;;4988875;28;20489;-75
2022/06/26 08:08:53;;;;;;;1.70;1.30;;;40.50;37.60;;;;;;4984277;28;20987;-75
2022/06/26 08:11:19;;;;;;;2.00;1.90;;;40.50;37.00;;;;;;4989662;28;20529;-70
2022/06/26 08:13:45;;;;;;;1.70;1.60;;;40.60;36.50;;;;;;4990851;28;20671;-70
2022/06/26 08:16:11;;;;;;;2.17;2.07;;;41.00;36.20;;;;;;4990243;28;20443;-73
2022/06/26 08:18:37;;;;;;;1.80;1.70;;;40.50;36.50;;;;;;4988141;28;20187;-70
2022/06/26 08:24:04;;;;;;;2.10;1.90;;;40.10;36.90;;;;;;4928888;29;20248;-72
2022/06/26 08:26:30;;;;;;;1.70;1.60;;;39.70;37.30;;;;;;4976400;28;20482;-76
2022/06/26 08:28:55;;;;;;;1.60;1.50;;;40.40;36.30;;;;;;4992808;28;20638;-73
2022/06/26 08:31:21;;;;;;;1.67;1.57;;;41.00;35.90;;;;;;4992387;28;20235;-73
2022/06/26 08:33:47;;;;;;;1.50;1.40;;;41.80;35.10;;;;;;4989817;28;20738;-71
2022/06/26 08:36:12;;;;;;;1.50;1.40;;;41.50;36.00;;;;;;4992270;28;20191;-73
2022/06/26 08:38:39;;;;;;;1.90;1.80;;;39.90;36.70;;;;;;4992683;28;20195;-73
2022/06/26 08:41:08;;;;;;;2.00;1.67;;;40.10;37.00;;;;;;4992122;28;20247;-72
2022/06/26 08:43:34;;;;;;;1.90;1.70;;;39.40;37.10;;;;;;4988377;28;20565;-74
2022/06/26 08:46:04;;;;;;;1.60;1.50;;;39.50;37.70;;;;;;4989296;28;21151;-69
2022/06/26 08:48:35;;;;;;;1.73;1.43;;;39.00;37.20;;;;;;4990162;28;20196;-72
2022/06/26 08:51:03;;;;;;;2.23;1.60;;;40.00;37.20;;;;;;4989150;28;20473;-68
2022/06/26 08:53:28;;;;;;;3.53;1.70;;;38.40;38.00;;;;;;4988517;28;20531;-69
2022/06/26 08:55:55;;;;;;;1.93;1.60;;;39.20;37.70;;;;;;4993376;28;20959;-76
2022/06/26 08:58:20;;;;;;;1.80;1.70;;;40.20;37.00;;;;;;4981972;28;20878;-74
2022/06/26 09:00:46;;;;;;;2.10;2.00;;;40.50;36.40;;;;;;4985452;28;20462;-72
2022/06/26 09:03:13;;;;;;;4.67;4.37;;;39.80;36.50;;;;;;4989122;28;20188;-72
2022/06/26 09:05:38;;;;;;;5.33;4.93;;;40.70;36.40;;;;;;4995895;28;20971;-74
2022/06/26 09:08:04;;;;;;;1.70;1.60;;;40.90;35.60;;;;;;4990917;28;20435;-71
2022/06/26 09:10:37;;;;;;;2.10;2.00;;;41.50;35.10;;;;;;4987473;28;20203;-74
2022/06/26 09:13:03;;;;;;;2.10;1.50;;;39.90;35.60;;;;;;4981295;28;20442;-70
2022/06/26 09:15:29;;;;;;;1.70;1.60;;;39.20;37.30;;;;;;4991569;28;21011;-74
2022/06/26 09:17:57;;;;;;;1.80;1.70;;;39.90;37.10;;;;;;4988554;28;20194;-75
2022/06/26 09:20:23;;;;;;;1.77;1.67;;;39.00;37.80;;;;;;4991815;28;20212;-75
2022/06/26 09:22:57;;;;;;;1.90;1.80;;;39.70;37.50;;;;;;4991007;28;20427;-76
2022/06/26 09:25:45;;;;;;;1.43;1.33;;;40.30;36.70;;;;;;4991334;28;20242;-71
2022/06/26 09:28:19;;;;;;;1.50;1.40;;;39.30;35.70;;;;;;4989120;28;20434;-73
2022/06/26 09:30:56;;;;;;;1.57;1.47;;;39.90;36.70;;;;;;4985483;28;20443;-72
2022/06/26 09:33:30;;;;;;;1.70;1.57;;;39.90;36.70;;;;;;4991241;28;20434;-72
2022/06/26 09:35:56;;;;;;;1.60;1.50;;;38.70;36.80;;;;;;4991484;28;20442;-75
2022/06/26 09:38:26;;;;;;;1.40;1.30;;;39.00;37.30;;;;;;4991181;28;20477;-72
2022/06/26 09:40:55;;;;;;;1.60;1.50;;;39.20;37.20;;;;;;4990978;28;20888;-73
2022/06/26 09:43:32;;;;;;;1.63;1.50;;;39.80;36.60;;;;;;4988329;28;20979;-73
2022/06/26 09:46:06;;;;;;;1.50;1.40;;;39.80;36.30;;;;;;4989879;28;20951;-73
2022/06/26 09:48:33;;;;;;;1.40;1.30;;;39.90;36.30;;;;;;4982210;28;20466;-70
2022/06/26 09:51:00;;;;;;;1.53;1.43;;;39.10;37.20;;;;;;4989058;28;20468;-72
2022/06/26 09:53:27;;;;;;;1.80;1.70;;;39.30;36.90;;;;;;4989537;28;20492;-71
2022/06/26 09:55:55;;;;;;;2.50;1.30;;;39.20;37.00;;;;;;4981494;28;20501;-73
2022/06/26 09:58:21;;;;;;;1.60;1.50;;;38.80;37.00;;;;;;4987014;28;20444;-73
2022/06/26 10:06:26;;;;;;;1.70;1.60;;;38.60;38.10;;;;;;4987527;28;20429;-75
2022/06/26 10:08:54;;;;;;;2.83;1.73;;;39.10;38.00;;;;;;4989058;28;20447;-74
2022/06/26 10:11:23;;;;;;;1.67;1.57;;;38.60;37.10;;;;;;4990375;28;20462;-72
2022/06/26 10:13:50;;;;;;;1.30;1.30;;;37.70;38.60;;;;;;4984597;28;20494;-73
2022/06/26 10:16:31;;;;;;;1.83;1.73;;;37.10;40.00;;;;;;4989539;28;20450;-75
2022/06/26 10:19:05;;;;;;;1.90;1.80;;;37.50;39.60;;;;;;4988734;28;20532;-69
2022/06/26 10:21:37;;;;;;;1.70;1.60;;;39.00;38.50;;;;;;4990564;28;20466;-71
2022/06/26 10:24:04;;;;;;;1.60;1.50;;;39.70;36.90;;;;;;4989552;28;20539;-69
2022/06/26 10:26:30;;;;;;;1.80;1.70;;;39.10;36.80;;;;;;4988788;28;20438;-69
2022/06/26 10:29:09;;;;;;;1.90;1.80;;;39.10;36.60;;;;;;4988487;28;20457;-69
2022/06/26 10:31:49;;;;;;;2.30;1.60;;;38.50;38.30;;;;;;4989168;28;20477;-69
2022/06/26 10:34:17;;;;;;;2.57;1.93;;;37.90;37.60;;;;;;4984381;28;21023;-69
2022/06/26 10:37:05;;;;;;;1.77;1.67;;;36.60;39.50;;;;;;4990081;28;20521;-69
2022/06/26 10:39:42;;;;;;;2.03;1.93;;;37.00;40.20;;;;;;4987165;28;21046;-70
2022/06/26 10:45:26;;;;;;;2.00;1.90;;;38.80;38.70;;;;;;4987497;28;20829;-70
2022/06/26 10:47:54;;;;;;;1.70;1.60;;;38.10;37.90;;;;;;4981273;28;20447;-70
2022/06/26 10:50:35;;;;;;;1.70;1.60;;;38.00;39.20;;;;;;4987051;28;20995;-69
2022/06/26 10:53:26;;;;;;;2.90;1.90;;;38.40;39.80;;;;;;4988950;28;20537;-69
2022/06/26 10:55:55;;;;;;;3.67;2.00;;;37.10;39.80;;;;;;4985059;28;20440;-70
2022/06/26 10:58:27;;;;;;;1.73;1.63;;;37.90;39.50;;;;;;4993080;28;20451;-69
2022/06/26 11:00:55;;;;;;;1.30;1.20;;;36.50;39.80;;;;;;4989145;28;20529;-69
2022/06/26 11:03:21;;;;;;;2.90;1.87;;;36.80;41.00;;;;;;4990060;28;20473;-69
2022/06/26 11:06:05;;;;;;;2.10;2.00;;;35.10;42.80;;;;;;4989633;28;20443;-68
2022/06/26 11:08:35;;;;;;;1.87;1.77;;;34.20;44.30;;;;;;4992013;28;20241;-68
2022/06/26 11:11:04;;;;;;;2.63;2.33;;;33.80;45.40;;;;;;4991552;28;20461;-69
2022/06/26 11:13:30;;;;;;;1.73;1.63;;;33.60;46.10;;;;;;4989717;28;20447;-68
2022/06/26 11:15:57;;;;;;;6.33;1.80;;;33.10;46.90;;;;;;4993494;28;20489;-68
2022/06/26 11:18:23;;;;;;;1.90;1.70;;;32.70;47.90;;;;;;4987796;28;20547;-68
2022/06/26 11:20:51;;;;;;;1.70;1.60;;;32.30;48.50;;;;;;4993181;28;21087;-68
2022/06/26 11:23:19;;;;;;;2.80;1.83;;;31.80;48.90;;;;;;4992079;28;20442;-68
2022/06/26 11:25:49;;;;;;;2.03;1.83;;;31.00;50.40;;;;;;4988765;28;20799;-69
2022/06/26 11:28:16;;;;;;;2.37;1.70;;;30.80;51.60;;;;;;4987181;28;20526;-68
2022/06/26 11:30:43;;;;;;;1.93;1.70;;;30.90;51.80;;;;;;4993760;28;20464;-69
2022/06/26 11:33:09;;;;;;;1.83;1.73;;;31.20;51.50;;;;;;4984726;28;20442;-68
2022/06/26 11:35:35;;;;;;;1.43;1.33;;;31.40;51.00;;;;;;4993405;28;20435;-68
2022/06/26 11:38:15;;;;;;;1.90;1.80;;;31.60;50.80;;;;;;4987141;28;20462;-68
2022/06/26 11:40:43;;;;;;;1.50;1.40;;;31.20;50.90;;;;;;4993549;28;20955;-68
2022/06/26 11:43:10;;;;;;;1.50;1.40;;;31.30;51.40;;;;;;4991055;28;20434;-69
2022/06/26 11:45:37;;;;;;;1.67;1.57;;;31.20;52.20;;;;;;4993512;28;20767;-68
2022/06/26 11:48:07;;;;;;;1.70;1.60;;;31.50;52.20;;;;;;4987283;28;20440;-68
2022/06/26 11:50:36;;;;;;;1.53;1.43;;;31.50;52.10;;;;;;4990036;28;20454;-68
2022/06/26 11:53:03;;;;;;;1.93;1.80;;;32.10;51.10;;;;;;4988822;28;20926;-68
2022/06/26 11:55:30;;;;;;;1.77;1.67;;;31.70;51.10;;;;;;4989096;28;20819;-69
2022/06/26 11:57:56;;;;;;;1.83;1.63;;;31.70;51.10;;;;;;4989303;28;20492;-68
2022/06/26 12:00:23;;;;;;;2.20;2.00;;;31.80;51.30;;;;;;4988558;28;20805;-69
2022/06/26 12:02:50;;;;;;;1.53;1.43;;;31.70;51.50;;;;;;4993404;28;20523;-68
2022/06/26 12:05:23;;;;;;;1.87;1.60;;;31.20;52.20;;;;;;4992488;28;21073;-69
2022/06/26 12:07:52;;;;;;;1.80;1.70;;;30.90;53.30;;;;;;4992640;28;20423;-68
2022/06/26 12:10:35;;;;;;;2.00;1.90;;;30.50;53.70;;;;;;4992212;28;20461;-69
2022/06/26 12:13:02;;;;;;;1.70;1.60;;;30.40;53.80;;;;;;4986514;28;20448;-68
2022/06/26 12:15:31;;;;;;;1.60;1.50;;;30.20;54.60;;;;;;4992649;28;20985;-71
2022/06/26 12:17:59;;;;;;;1.93;1.80;;;30.10;55.00;;;;;;4991174;28;20453;-71
2022/06/26 12:20:33;;;;;;;1.47;1.37;;;29.80;56.00;;;;;;4988251;28;21002;-72
2022/06/26 12:22:59;;;;;;;2.20;2.00;;;29.80;55.60;;;;;;4987422;28;20536;-75
2022/06/26 12:25:33;;;;;;;1.67;1.50;;;29.50;55.50;;;;;;4988376;28;20507;-73
2022/06/26 12:28:00;;;;;;;1.47;1.37;;;29.60;55.60;;;;;;4985871;28;20186;-74
2022/06/26 12:30:39;;;;;;;2.00;1.90;;;29.60;56.50;;;;;;4986991;28;20584;-70
2022/06/26 12:33:06;;;;;;;1.60;1.50;;;29.60;55.90;;;;;;4991846;28;20533;-70
2022/06/26 12:35:32;;;;;;;1.87;1.67;;;29.50;55.50;;;;;;4992261;28;20940;-72
2022/06/26 12:37:59;;;;;;;1.50;1.40;;;29.30;56.40;;;;;;4995712;28;20441;-72
2022/06/26 12:40:25;;;;;;;1.60;1.50;;;29.40;55.00;;;;;;4992355;28;20547;-68
2022/06/26 12:42:52;;;;;;;1.70;1.60;;;29.30;54.70;;;;;;4982687;28;20814;-69
2022/06/26 12:45:18;;;;;;;1.83;1.73;;;29.20;55.10;;;;;;4990926;28;20466;-70
2022/06/26 12:47:44;;;;;;;1.57;1.47;;;29.20;56.10;;;;;;4984882;28;21135;-69
2022/06/26 12:50:11;;;;;;;1.70;1.60;;;29.00;56.90;;;;;;4985866;28;20478;-68
2022/06/26 12:52:37;;;;;;;1.70;1.60;;;29.10;57.00;;;;;;4993797;28;20824;-70
2022/06/26 12:55:04;;;;;;;2.30;2.20;;;29.20;57.40;;;;;;4988623;28;20518;-71
2022/06/26 12:57:30;;;;;;;1.80;1.70;;;29.30;57.10;;;;;;4992496;28;20433;-75
2022/06/26 12:59:56;;;;;;;1.40;1.30;;;29.30;56.90;;;;;;4990312;28;20458;-76
2022/06/26 13:02:22;;;;;;;1.80;1.60;;;29.20;57.20;;;;;;4989740;28;20198;-70
2022/06/26 13:04:48;;;;;;;1.90;1.80;;;29.20;56.70;;;;;;4991496;28;20214;-77